Time;durP1;ratioP1;P1;durP2;ratioP2;P2;SDS_P1;SDS_P2;PMS_P1;PMS_P2;Temp;Humidity;BMP_temperature;BMP_pressure;BME280_temperature;BME280_humidity;BME280_pressure;Samples;Min_cycle;Max_cycle;Signal;HPM_P1;HPM_P2
2021/05/04 00:01:26;;;;;;;9.60;3.20;;;;;;;9.34;65.59;101489.83;1740311;82;25770;-59
2021/05/04 00:03:54;;;;;;;3.30;3.00;;;;;;;9.35;65.34;101493.77;1740305;82;25654;-59
2021/05/04 00:06:22;;;;;;;4.05;2.72;;;;;;;9.35;65.06;101487.05;1755477;81;25718;-58
2021/05/04 00:08:50;;;;;;;6.65;3.58;;;;;;;9.38;65.68;101488.16;1771181;81;26187;-58
2021/05/04 00:11:18;;;;;;;3.95;2.65;;;;;;;9.36;65.19;101490.12;1771042;81;28928;-58
2021/05/04 00:13:50;;;;;;;8.68;3.40;;;;;;;9.33;64.89;101490.33;1770948;80;25719;-58
2021/05/04 00:16:19;;;;;;;10.50;3.00;;;;;;;9.35;64.86;101491.09;1770977;80;25743;-58
2021/05/04 00:18:46;;;;;;;5.60;2.70;;;;;;;9.39;64.96;101493.06;1771150;80;25554;-58
2021/05/04 00:21:17;;;;;;;3.70;2.60;;;;;;;9.41;65.69;101495.16;1771117;81;25864;-58
2021/05/04 00:23:45;;;;;;;3.55;2.42;;;;;;;9.35;65.33;101499.14;1771007;80;27539;-58
2021/05/04 00:26:15;;;;;;;5.75;2.35;;;;;;;9.35;65.51;101497.80;1770920;80;25725;-58
2021/05/04 00:28:43;;;;;;;5.85;2.37;;;;;;;9.36;65.67;101498.17;1770966;81;25732;-58
2021/05/04 00:31:11;;;;;;;5.60;2.58;;;;;;;9.39;65.68;101492.56;1770945;81;25552;-58
2021/05/04 00:33:39;;;;;;;4.67;2.55;;;;;;;9.42;65.64;101494.66;1771029;81;26607;-58
2021/05/04 00:36:08;;;;;;;5.80;2.70;;;;;;;9.44;65.59;101493.57;1771064;81;28508;-58
2021/05/04 00:38:36;;;;;;;5.47;2.33;;;;;;;9.46;65.69;101497.02;1771019;81;25703;-58
2021/05/04 00:41:06;;;;;;;6.17;2.50;;;;;;;9.49;65.78;101491.42;1770934;80;25674;-58
2021/05/04 00:43:34;;;;;;;8.03;3.15;;;;;;;9.50;66.14;101488.24;1765134;81;25656;-58
2021/05/04 00:46:02;;;;;;;6.70;2.37;;;;;;;9.49;66.20;101490.55;1755985;81;25619;-58
2021/05/04 00:48:31;;;;;;;4.25;2.30;;;;;;;9.46;66.20;101490.30;1755858;81;27529;-58
2021/05/04 00:51:00;;;;;;;6.25;2.83;;;;;;;9.45;66.77;101484.55;1745686;81;26088;-58
2021/05/04 00:53:30;;;;;;;4.30;2.17;;;;;;;9.29;66.19;101486.13;1710193;83;25677;-58
2021/05/04 00:56:02;;;;;;;7.83;2.67;;;;;;;9.24;66.90;101491.83;1769658;80;25716;-58
2021/05/04 00:58:36;;;;;;;8.48;2.72;;;;;;;9.20;66.59;101491.69;1779335;80;25764;-58
2021/05/04 01:01:04;;;;;;;;;;;;;;;9.15;66.50;101494.33;1782051;80;27526;-58
2021/05/04 01:03:33;;;;;;;4.75;3.22;;;;;;;9.00;65.97;101494.45;1779145;80;25627;-58
2021/05/04 01:06:01;;;;;;;5.95;3.10;;;;;;;8.92;66.17;101486.06;1768740;80;25704;-58
2021/05/04 01:08:29;;;;;;;4.85;2.92;;;;;;;8.89;66.34;101490.33;1748355;82;25678;-57
2021/05/04 01:10:57;;;;;;;4.35;3.52;;;;;;;8.84;66.27;101491.98;1748274;82;25634;-58
2021/05/04 01:13:25;;;;;;;8.88;3.58;;;;;;;8.76;66.51;101493.00;1748470;82;28375;-58
2021/05/04 01:15:53;;;;;;;5.83;3.22;;;;;;;8.68;66.76;101494.02;1747981;82;25899;-58
2021/05/04 01:18:22;;;;;;;5.95;2.70;;;;;;;8.63;66.48;101497.48;1748282;82;25716;-57
2021/05/04 01:20:50;;;;;;;8.05;2.90;;;;;;;8.59;66.60;101498.18;1748388;82;25782;-57
2021/05/04 01:23:19;;;;;;;4.12;2.80;;;;;;;8.54;66.96;101498.99;1748297;82;25717;-58
2021/05/04 01:25:47;;;;;;;5.47;3.30;;;;;;;8.49;66.91;101501.11;1748415;82;28469;-57
2021/05/04 01:28:15;;;;;;;5.22;2.92;;;;;;;8.46;66.82;101507.05;1748214;82;25658;-57
2021/05/04 01:30:43;;;;;;;3.75;2.95;;;;;;;8.42;66.55;101501.50;1748276;82;25709;-57
2021/05/04 01:33:11;;;;;;;3.67;3.08;;;;;;;8.36;66.49;101495.69;1748217;82;26129;-57
2021/05/04 01:35:39;;;;;;;3.95;2.87;;;;;;;8.29;66.50;101507.34;1748344;82;25678;-57
2021/05/04 01:38:07;;;;;;;6.67;3.37;;;;;;;8.27;66.74;101507.91;1748395;82;29133;-57
2021/05/04 01:40:35;;;;;;;6.12;2.98;;;;;;;8.22;67.35;101504.20;1748024;82;25844;-57
2021/05/04 01:43:03;;;;;;;3.15;2.77;;;;;;;8.20;67.12;101506.12;1748357;82;25666;-57
2021/05/04 01:45:31;;;;;;;5.87;2.67;;;;;;;8.18;67.15;101509.87;1748363;82;25805;-57
2021/05/04 01:48:01;;;;;;;3.80;3.17;;;;;;;8.18;67.63;101519.25;1748466;82;26195;-57
2021/05/04 01:50:29;;;;;;;5.22;3.02;;;;;;;8.21;68.13;101526.60;1748279;82;28498;-57
2021/05/04 01:52:57;;;;;;;5.25;2.40;;;;;;;8.25;68.58;101517.38;1745531;81;25961;-57
2021/05/04 01:55:25;;;;;;;8.28;2.72;;;;;;;8.24;67.67;101521.52;1742942;82;25774;-57
2021/05/04 01:57:53;;;;;;;8.33;2.67;;;;;;;8.24;67.76;101519.70;1746004;82;25726;-57
2021/05/04 02:00:21;;;;;;;4.67;2.60;;;;;;;8.27;67.71;101524.00;1745999;82;26099;-57
2021/05/04 02:02:49;;;;;;;4.80;2.98;;;;;;;8.30;68.07;101526.45;1745977;82;28331;-58
2021/05/04 02:05:17;;;;;;;7.50;3.20;;;;;;;8.28;68.06;101525.22;1745479;81;25652;-57
2021/05/04 02:07:46;;;;;;;8.43;3.98;;;;;;;8.26;67.81;101523.61;1740488;82;25769;-57
2021/05/04 02:10:14;;;;;;;6.05;3.70;;;;;;;8.28;67.74;101525.22;1740405;82;25713;-57
2021/05/04 02:12:43;;;;;;;6.20;3.70;;;;;;;8.31;67.77;101522.81;1740400;82;26108;-57
2021/05/04 02:15:13;;;;;;;13.15;4.72;;;;;;;8.33;67.71;101528.09;1740388;82;28479;-57
2021/05/04 02:17:41;;;;;;;10.05;4.85;;;;;;;8.35;67.66;101529.70;1740321;82;26167;-57
2021/05/04 02:20:12;;;;;;;7.08;5.28;;;;;;;8.37;67.49;101528.25;1740448;82;25698;-57
2021/05/04 02:22:40;;;;;;;6.62;5.37;;;;;;;8.35;67.28;101525.68;1740431;82;25780;-57
2021/05/04 02:25:11;;;;;;;7.97;5.03;;;;;;;8.30;67.17;101525.98;1740498;82;25868;-58
2021/05/04 02:27:39;;;;;;;7.70;5.55;;;;;;;8.25;67.18;101526.76;1740398;82;28451;-57
2021/05/04 02:30:09;;;;;;;8.38;5.22;;;;;;;8.20;67.15;101528.05;1740250;82;25663;-57
2021/05/04 02:32:37;;;;;;;11.30;5.42;;;;;;;8.13;66.95;101528.44;1740314;82;25704;-57
2021/05/04 02:35:06;;;;;;;5.33;3.87;;;;;;;8.08;66.78;101527.90;1740437;82;25684;-57
2021/05/04 02:37:34;;;;;;;7.50;5.35;;;;;;;8.01;67.03;101519.02;1740428;82;25618;-57
2021/05/04 02:40:04;;;;;;;8.78;4.03;;;;;;;7.97;66.82;101519.23;1740376;82;28009;-56
2021/05/04 02:42:32;;;;;;;11.22;5.47;;;;;;;7.93;67.08;101518.20;1740227;82;25878;-57
2021/05/04 02:45:00;;;;;;;6.25;5.42;;;;;;;7.87;67.03;101515.90;1740376;82;25695;-57
2021/05/04 02:47:29;;;;;;;10.90;5.72;;;;;;;7.81;67.14;101522.05;1740377;82;25686;-57
2021/05/04 02:49:56;;;;;;;7.72;6.05;;;;;;;7.77;67.04;101525.03;1740463;81;25647;-58
2021/05/04 02:52:24;;;;;;;9.65;6.03;;;;;;;7.71;67.36;101528.95;1740129;82;27590;-58
2021/05/04 02:54:52;;;;;;;12.45;6.30;;;;;;;7.65;67.27;101518.16;1748132;82;25662;-57
2021/05/04 02:57:21;;;;;;;7.83;5.53;;;;;;;7.61;67.36;101512.64;1748410;82;25635;-58
2021/05/04 02:59:48;;;;;;;7.33;5.30;;;;;;;7.59;67.38;101513.66;1748427;81;25639;-58
2021/05/04 03:02:16;;;;;;;16.85;7.15;;;;;;;7.57;67.41;101507.58;1748411;81;26107;-58
2021/05/04 03:04:45;;;;;;;10.58;5.00;;;;;;;7.60;68.48;101513.59;1748213;82;27058;-57
2021/05/04 03:07:13;;;;;;;29.52;13.18;;;;;;;7.63;68.86;101519.22;1748310;81;25646;-58
2021/05/04 03:09:43;;;;;;;31.85;10.78;;;;;;;7.63;69.12;101529.44;1748302;82;25791;-58
2021/05/04 03:12:11;;;;;;;19.80;7.95;;;;;;;7.68;69.82;101539.86;1748325;82;25681;-57
2021/05/04 03:14:39;;;;;;;13.15;5.90;;;;;;;7.75;70.54;101549.70;1748478;81;25675;-57
2021/05/04 03:17:07;;;;;;;11.03;5.17;;;;;;;7.79;69.91;101552.58;1748424;82;27584;-57
2021/05/04 03:19:36;;;;;;;11.53;4.50;;;;;;;7.82;69.55;101554.58;1748485;81;25756;-57
2021/05/04 03:22:05;;;;;;;6.20;4.12;;;;;;;7.84;69.59;101556.66;1748539;82;25558;-58
2021/05/04 03:24:33;;;;;;;8.05;4.15;;;;;;;7.86;69.26;101567.30;1748552;82;25656;-57
2021/05/04 03:27:01;;;;;;;16.50;4.72;;;;;;;7.93;69.51;101573.13;1748500;82;25779;-59
2021/05/04 03:29:29;;;;;;;7.42;3.80;;;;;;;8.07;70.34;101570.89;1748377;82;27550;-58
2021/05/04 03:31:58;;;;;;;5.75;3.30;;;;;;;8.21;70.23;101568.61;1748277;82;25443;-58
2021/05/04 03:34:26;;;;;;;7.40;3.17;;;;;;;8.29;69.43;101573.02;1748520;81;25667;-58
2021/05/04 03:36:54;;;;;;;8.15;3.10;;;;;;;8.38;69.13;101573.71;1748547;82;26037;-58
2021/05/04 03:39:22;;;;;;;15.70;3.27;;;;;;;8.46;68.78;101574.09;1748506;82;26088;-59
2021/05/04 03:41:51;;;;;;;6.87;3.60;;;;;;;8.50;68.56;101578.80;1748433;82;27525;-58
2021/05/04 03:44:21;;;;;;;15.83;3.87;;;;;;;8.56;68.27;101581.05;1748269;81;25714;-60
2021/05/04 03:46:57;;;;;;;22.67;3.95;;;;;;;8.64;68.17;101579.21;1745942;80;26338;-61
2021/05/04 03:49:25;;;;;;;14.65;3.62;;;;;;;8.71;67.76;101582.31;1752603;80;26463;-58
2021/05/04 03:51:53;;;;;;;10.65;3.70;;;;;;;8.74;67.47;101577.59;1748396;82;26365;-56
2021/05/04 03:54:21;;;;;;;8.40;3.30;;;;;;;8.77;67.18;101581.91;1743420;82;27530;-57
2021/05/04 03:56:50;;;;;;;9.53;3.22;;;;;;;8.80;67.07;101579.50;1740407;81;26146;-57
2021/05/04 03:59:18;;;;;;;24.60;5.55;;;;;;;8.79;66.90;101588.51;1740556;81;25678;-57
2021/05/04 04:01:47;;;;;;;5.17;3.70;;;;;;;8.80;67.23;101590.23;1740605;82;25825;-57
2021/05/04 04:04:15;;;;;;;9.75;5.90;;;;;;;8.75;66.94;101586.52;1740587;81;25710;-58
2021/05/04 04:06:44;;;;;;;19.55;9.50;;;;;;;8.72;67.26;101587.59;1759892;81;27533;-58
2021/05/04 04:09:12;;;;;;;15.55;4.30;;;;;;;8.67;67.43;101583.00;1771124;81;25752;-57
2021/05/04 04:11:40;;;;;;;4.42;3.35;;;;;;;8.65;67.20;101583.58;1771112;81;25685;-57
2021/05/04 04:14:08;;;;;;;8.35;3.98;;;;;;;8.63;67.10;101588.68;1771104;80;25853;-56
2021/05/04 04:16:36;;;;;;;5.28;3.67;;;;;;;8.58;67.07;101589.86;1771117;81;25705;-58
2021/05/04 04:19:04;;;;;;;9.10;4.62;;;;;;;8.56;67.02;101593.62;1771159;81;27441;-58
2021/05/04 04:21:32;;;;;;;11.18;4.58;;;;;;;8.54;67.16;101586.99;1771098;81;25752;-58
2021/05/04 04:24:01;;;;;;;8.35;4.17;;;;;;;8.54;67.18;101586.99;1771191;81;25658;-58
2021/05/04 04:26:29;;;;;;;10.45;4.60;;;;;;;8.56;67.26;101589.10;1771048;80;25740;-57
2021/05/04 04:28:59;;;;;;;11.08;3.87;;;;;;;8.57;67.34;101586.80;1771003;81;25685;-57
2021/05/04 04:31:27;;;;;;;19.80;5.40;;;;;;;8.60;67.30;101589.75;1771075;81;27351;-57
2021/05/04 04:33:55;;;;;;;20.00;7.78;;;;;;;8.65;67.65;101588.95;1771047;81;25820;-58
2021/05/04 04:36:23;;;;;;;16.97;4.65;;;;;;;8.73;67.94;101591.12;1771146;81;25718;-56
2021/05/04 04:38:51;;;;;;;15.13;3.10;;;;;;;8.81;68.20;101593.30;1771150;81;26568;-57
2021/05/04 04:41:21;;;;;;;15.83;4.55;;;;;;;8.87;67.70;101591.06;1768776;80;25643;-57
2021/05/04 04:43:49;;;;;;;18.10;4.10;;;;;;;8.95;67.51;101586.48;1771155;81;27537;-57
2021/05/04 04:46:17;;;;;;;5.70;3.10;;;;;;;9.04;67.75;101592.56;1770981;81;26111;-58
2021/05/04 04:48:46;;;;;;;7.30;3.17;;;;;;;9.11;65.92;101593.47;1771125;80;25671;-58
2021/05/04 04:51:15;;;;;;;7.60;4.25;;;;;;;9.09;65.54;101592.25;1747774;81;25664;-57
2021/05/04 04:53:44;;;;;;;7.08;3.47;;;;;;;9.13;65.05;101591.08;1741765;82;26105;-57
2021/05/04 04:56:12;;;;;;;10.93;3.20;;;;;;;9.16;65.07;101592.19;1748472;82;28443;-58
2021/05/04 04:58:40;;;;;;;8.60;3.15;;;;;;;9.21;65.27;101597.23;1748396;82;26054;-57
2021/05/04 05:01:08;;;;;;;12.10;3.55;;;;;;;9.24;64.52;101602.41;1748564;81;25790;-57
2021/05/04 05:03:35;;;;;;;7.50;3.15;;;;;;;9.26;63.71;101600.95;1748489;81;25736;-57
2021/05/04 05:06:06;;;;;;;8.25;3.10;;;;;;;9.29;63.58;101600.25;1759268;80;25967;-59
2021/05/04 05:08:36;;;;;;;8.20;3.40;;;;;;;9.25;63.13;101601.44;1779407;80;27537;-57
2021/05/04 05:11:04;;;;;;;10.78;3.25;;;;;;;9.19;62.76;101590.64;1779096;80;25763;-58
2021/05/04 05:13:34;;;;;;;6.45;4.10;;;;;;;9.23;63.05;101596.66;1779414;80;25739;-57
2021/05/04 05:16:03;;;;;;;14.25;3.50;;;;;;;9.30;62.80;101590.38;1779120;80;26570;-58
2021/05/04 05:18:33;;;;;;;6.25;3.37;;;;;;;9.32;62.55;101602.73;1778942;80;25882;-58
2021/05/04 05:21:01;;;;;;;6.45;3.05;;;;;;;9.35;62.51;101597.62;1779270;80;27537;-58
2021/05/04 05:23:30;;;;;;;4.20;3.15;;;;;;;9.38;62.27;101590.20;1779017;80;25797;-58
2021/05/04 05:26:01;;;;;;;6.08;2.95;;;;;;;9.41;62.38;101593.18;1779246;80;25690;-58
2021/05/04 05:28:29;;;;;;;5.90;3.42;;;;;;;9.45;62.18;101597.34;1779153;80;25686;-58
2021/05/04 05:30:57;;;;;;;7.45;3.17;;;;;;;9.52;62.23;101597.78;1779264;80;26100;-58
2021/05/04 05:33:26;;;;;;;18.17;11.10;;;;;;;9.54;61.54;101598.53;1779306;80;27543;-58
2021/05/04 05:35:54;;;;;;;7.30;4.08;;;;;;;9.53;61.33;101596.81;1779015;80;25729;-58
2021/05/04 05:38:24;;;;;;;5.47;3.90;;;;;;;9.59;61.49;101595.52;1778192;80;25761;-58
2021/05/04 05:40:53;;;;;;;6.97;3.47;;;;;;;9.62;61.02;101592.13;1779446;80;25794;-58
2021/05/04 05:43:22;;;;;;;7.58;3.33;;;;;;;9.66;60.96;101598.14;1779141;80;26374;-59
2021/05/04 05:45:51;;;;;;;11.75;3.40;;;;;;;9.71;60.92;101589.25;1779244;80;28499;-58
2021/05/04 05:48:20;;;;;;;7.33;3.00;;;;;;;9.80;60.03;101586.40;1779259;80;26092;-58
2021/05/04 05:50:48;;;;;;;10.58;4.17;;;;;;;9.86;59.47;101587.29;1761586;80;25738;-58
2021/05/04 05:53:18;;;;;;;9.35;4.30;;;;;;;9.90;59.41;101591.48;1752649;80;25761;-57
2021/05/04 05:55:46;;;;;;;6.50;3.90;;;;;;;9.93;59.43;101594.43;1741306;82;25678;-57
2021/05/04 05:58:14;;;;;;;8.30;4.08;;;;;;;9.99;59.84;101590.81;1740490;82;27531;-57
2021/05/04 06:00:42;;;;;;;11.68;4.00;;;;;;;10.07;59.95;101592.92;1740465;82;25994;-56
2021/05/04 06:03:10;;;;;;;7.05;3.65;;;;;;;10.15;59.30;101596.40;1740653;81;25796;-57
2021/05/04 06:05:38;;;;;;;6.80;4.00;;;;;;;10.16;58.79;101594.94;1746543;81;26437;-58
2021/05/04 06:08:06;;;;;;;10.80;2.90;;;;;;;10.23;58.62;101591.78;1705389;84;25669;-57
2021/05/04 06:10:34;;;;;;;5.17;3.27;;;;;;;10.30;57.98;101584.50;1740428;82;28442;-58
2021/05/04 06:13:06;;;;;;;5.95;2.58;;;;;;;10.37;57.99;101588.97;1740259;82;25764;-58
2021/05/04 06:15:36;;;;;;;5.97;3.67;;;;;;;10.41;57.68;101586.91;1740590;81;25993;-58
2021/05/04 06:18:05;;;;;;;7.87;3.85;;;;;;;10.47;57.61;101578.37;1753028;81;25659;-58
2021/05/04 06:20:33;;;;;;;4.72;3.40;;;;;;;10.49;57.24;101577.77;1746428;81;26033;-58
2021/05/04 06:23:01;;;;;;;5.42;2.90;;;;;;;10.53;56.81;101585.13;1747434;80;27745;-58
2021/05/04 06:25:30;;;;;;;4.42;2.45;;;;;;;10.57;55.51;101570.48;1744462;81;26177;-58
2021/05/04 06:28:04;;;;;;;4.58;2.67;;;;;;;10.59;54.77;101569.37;1740435;82;25623;-58
2021/05/04 06:30:34;;;;;;;2.92;2.35;;;;;;;10.63;53.53;101568.66;1748672;81;26435;-58
2021/05/04 06:33:10;;;;;;;2.70;1.98;;;;;;;10.69;52.15;101561.45;1744396;81;25692;-58
2021/05/04 06:35:41;;;;;;;4.05;2.52;;;;;;;10.79;51.71;101561.62;1748836;81;27580;-58
2021/05/04 06:38:12;;;;;;;6.90;2.25;;;;;;;10.83;51.48;101565.77;1744672;81;25868;-58
2021/05/04 06:40:42;;;;;;;2.83;2.42;;;;;;;10.84;50.93;101562.11;1740424;82;25667;-58
2021/05/04 06:43:11;;;;;;;4.33;2.35;;;;;;;10.91;51.32;101563.34;1740308;82;25718;-58
2021/05/04 06:45:40;;;;;;;6.70;2.50;;;;;;;10.92;50.68;101555.64;1740470;82;26176;-58
2021/05/04 06:48:09;;;;;;;3.22;2.20;;;;;;;10.96;51.50;101551.74;1740264;82;28617;-58
2021/05/04 06:50:37;;;;;;;3.87;2.47;;;;;;;11.02;50.95;101558.95;1740276;81;26334;-58
2021/05/04 06:53:06;;;;;;;2.50;2.12;;;;;;;11.05;49.47;101560.08;1744482;81;25774;-58
2021/05/04 06:55:35;;;;;;;3.58;1.85;;;;;;;11.14;50.39;101554.44;1745273;81;25738;-58
2021/05/04 06:58:03;;;;;;;8.45;2.00;;;;;;;11.22;51.11;101547.95;1748445;81;26169;-57
2021/05/04 07:00:32;;;;;;;7.70;2.10;;;;;;;11.33;50.47;101560.59;1748362;81;27529;-58
2021/05/04 07:03:04;;;;;;;8.13;2.20;;;;;;;11.37;49.40;101556.19;1756232;80;26372;-57
2021/05/04 07:05:32;;;;;;;2.37;1.87;;;;;;;11.39;48.32;101553.37;1748274;82;25676;-57
2021/05/04 07:08:00;;;;;;;3.80;1.57;;;;;;;11.52;48.08;101547.84;1749204;81;26517;-57
2021/05/04 07:10:28;;;;;;;2.67;1.20;;;;;;;11.62;47.10;101557.38;1752522;80;25810;-57
2021/05/04 07:12:56;;;;;;;1.85;1.27;;;;;;;11.69;45.76;101541.95;1752438;80;28488;-58
2021/05/04 07:15:24;;;;;;;2.67;1.62;;;;;;;11.75;46.52;101533.36;1748256;82;26081;-57
2021/05/04 07:17:52;;;;;;;9.98;4.65;;;;;;;11.84;47.65;101532.23;1752827;80;25712;-57
2021/05/04 07:20:22;;;;;;;9.20;2.80;;;;;;;11.93;47.46;101527.94;1748021;80;25730;-57
2021/05/04 07:22:57;;;;;;;2.80;1.70;;;;;;;12.04;47.42;101526.09;1752565;80;25667;-59
2021/05/04 07:25:25;;;;;;;3.47;2.00;;;;;;;12.13;47.12;101519.56;1752512;80;26733;-57
2021/05/04 07:27:55;;;;;;;9.88;2.52;;;;;;;12.21;46.78;101516.61;1761615;80;25960;-60
2021/05/04 07:30:24;;;;;;;2.37;1.55;;;;;;;12.29;45.89;101516.45;1748228;82;26333;-57
2021/05/04 07:32:52;;;;;;;5.85;1.77;;;;;;;12.37;45.19;101512.61;1748252;82;26634;-58
2021/05/04 07:35:20;;;;;;;3.40;1.50;;;;;;;12.44;44.66;101521.05;1760490;80;25644;-58
2021/05/04 07:37:48;;;;;;;3.02;1.50;;;;;;;12.47;45.40;101516.25;1758917;80;27589;-58
2021/05/04 07:40:16;;;;;;;1.70;1.40;;;;;;;12.53;44.78;101520.27;1771848;80;25615;-58
2021/05/04 07:42:44;;;;;;;1.70;1.20;;;;;;;12.60;44.80;101517.41;1779137;80;26326;-57
2021/05/04 07:45:12;;;;;;;3.80;1.42;;;;;;;12.63;45.00;101505.00;1779128;80;25618;-58
2021/05/04 07:47:41;;;;;;;1.98;1.30;;;;;;;12.73;45.06;101513.66;1779255;80;25887;-58
2021/05/04 07:50:12;;;;;;;5.00;2.77;;;;;;;12.81;43.83;101522.80;1769847;80;27517;-58
2021/05/04 07:52:40;;;;;;;2.65;1.17;;;;;;;12.91;44.41;101522.84;1748093;82;25701;-58
2021/05/04 07:55:09;;;;;;;5.03;2.95;;;;;;;13.05;44.71;101518.09;1742788;82;25723;-57
2021/05/04 07:57:37;;;;;;;7.22;1.75;;;;;;;13.23;44.51;101512.43;1731836;82;25803;-59
2021/05/04 08:00:07;;;;;;;1.80;1.37;;;;;;;13.49;44.10;101513.85;1737888;81;25439;-58
2021/05/04 08:02:37;;;;;;;2.05;1.40;;;;;;;13.78;43.55;101516.62;1760023;80;27795;-58
2021/05/04 08:05:07;;;;;;;3.22;1.67;;;;;;;13.96;42.39;101524.91;1740421;82;26006;-58
2021/05/04 08:07:35;;;;;;;2.52;1.30;;;;;;;14.06;42.18;101516.30;1744973;80;25731;-58
2021/05/04 08:10:09;;;;;;;1.90;1.50;;;;;;;14.13;42.46;101515.73;1740277;81;25747;-60
2021/05/04 08:12:38;;;;;;;4.60;1.45;;;;;;;14.14;41.61;101521.50;1740224;82;26223;-60
2021/05/04 08:15:13;;;;;;;6.28;1.42;;;;;;;14.07;40.25;101518.53;1742802;81;28514;-58
2021/05/04 08:17:41;;;;;;;2.22;1.32;;;;;;;14.05;40.74;101529.47;1752857;81;27156;-58
2021/05/04 08:20:11;;;;;;;5.85;1.40;;;;;;;14.16;40.41;101518.16;1743242;81;25995;-59
2021/05/04 08:22:40;;;;;;;2.85;1.57;;;;;;;14.38;39.75;101509.78;1748559;80;25887;-60
2021/05/04 08:25:10;;;;;;;7.90;1.55;;;;;;;14.59;40.46;101507.90;1753060;81;25712;-58
2021/05/04 08:27:37;;;;;;;5.15;1.75;;;;;;;14.81;39.84;101502.17;1744490;81;28472;-58
2021/05/04 08:30:08;;;;;;;6.17;2.08;;;;;;;14.93;39.90;101506.92;1748918;81;25639;-58
2021/05/04 08:32:37;;;;;;;3.98;1.77;;;;;;;15.01;39.79;101504.84;1740222;81;25702;-57
2021/05/04 08:35:07;;;;;;;3.52;1.70;;;;;;;15.10;39.40;101508.53;1740373;81;25801;-57
2021/05/04 08:37:35;;;;;;;2.12;1.47;;;;;;;15.21;40.41;101508.33;1740478;81;25619;-57
2021/05/04 08:40:05;;;;;;;4.45;1.98;;;;;;;15.46;40.28;101502.73;1740549;82;27527;-57
2021/05/04 08:42:33;;;;;;;5.00;2.62;;;;;;;15.56;39.10;101499.95;1740203;81;26231;-57
2021/05/04 08:45:05;;;;;;;2.08;1.45;;;;;;;15.44;39.33;101498.47;1740460;81;25700;-58
2021/05/04 08:47:34;;;;;;;5.85;1.87;;;;;;;15.49;40.00;101495.66;1740484;82;26464;-57
2021/05/04 08:50:03;;;;;;;2.52;1.40;;;;;;;15.60;40.18;101493.72;1748236;81;25658;-58
2021/05/04 08:52:37;;;;;;;10.08;1.92;;;;;;;15.72;39.43;101488.45;1771087;80;27593;-60
2021/05/04 08:55:17;;;;;;;3.98;2.25;;;;;;;15.86;37.97;101503.38;1758804;81;25694;-57
2021/05/04 08:57:44;;;;;;;2.75;1.60;;;;;;;15.91;37.02;101496.98;1740517;82;25802;-57
2021/05/04 09:00:15;;;;;;;2.65;1.77;;;;;;;15.92;36.03;101496.49;1704835;84;26386;-57
2021/05/04 09:03:06;;;;;;;2.65;1.60;;;;;;;16.06;35.26;101481.54;1740513;82;25667;-58
2021/05/04 09:06:01;;;;;;;6.83;1.70;;;;;;;16.26;35.49;101480.86;1744802;81;29627;-57
2021/05/04 09:08:43;;;;;;;3.75;2.08;;;;;;;16.47;35.09;101479.16;1770217;80;26065;-57
2021/05/04 09:16:35;;;;;;;4.45;2.12;;;;;;;17.50;34.05;101466.19;1770994;80;25734;-58
2021/05/04 09:19:14;;;;;;;4.65;1.75;;;;;;;17.63;33.75;101464.84;1770889;81;28593;-57
2021/05/04 09:21:40;;;;;;;2.47;1.27;;;;;;;18.08;33.16;101470.41;1770117;80;26326;-57
2021/05/04 09:24:23;;;;;;;4.62;1.40;;;;;;;18.64;29.15;101471.08;1771059;80;25761;-57
2021/05/04 09:27:06;;;;;;;2.12;1.37;;;;;;;18.87;28.40;101463.55;1758704;81;26430;-57
2021/05/04 09:29:55;;;;;;;2.37;1.92;;;;;;;19.49;29.12;101460.62;1728121;82;25608;-59
2021/05/04 09:32:32;;;;;;;2.15;1.40;;;;;;;20.15;30.08;101454.24;1843682;76;25705;-57
2021/05/04 09:35:06;;;;;;;4.12;1.32;;;;;;;20.47;28.95;101445.41;1814190;79;25575;-58
2021/05/04 09:37:39;;;;;;;9.78;2.02;;;;;;;20.87;29.02;101450.67;1782965;79;28444;-58
2021/05/04 09:40:27;;;;;;;;;;;;;;;20.75;28.58;101448.09;1816814;78;25737;-58
2021/05/04 09:43:08;;;;;;;4.45;1.40;;;;;;;21.25;28.05;101438.25;1814066;78;25735;-58
2021/05/04 09:45:56;;;;;;;9.60;4.10;;;;;;;21.74;27.56;101437.25;1813722;77;25862;-59
2021/05/04 09:48:34;;;;;;;10.82;2.37;;;;;;;21.24;25.38;101447.50;1814869;77;25745;-58
2021/05/04 09:51:11;;;;;;;5.28;1.57;;;;;;;20.82;27.60;101439.46;1810668;79;27517;-59
2021/05/04 09:53:59;;;;;;;2.77;1.60;;;;;;;21.41;26.04;101424.88;1808365;79;25658;-57
2021/05/04 09:56:20;;;;;;;7.50;1.50;;;;;;;21.74;26.32;101430.41;1792821;79;25801;-57
2021/05/04 09:58:49;;;;;;;3.50;1.62;;;;;;;22.00;25.47;101425.73;1791207;79;25615;-58
2021/05/04 10:01:20;;;;;;;7.83;1.70;;;;;;;21.43;26.72;101429.62;1809951;79;25686;-57
2021/05/04 10:03:50;;;;;;;2.30;1.32;;;;;;;21.71;25.69;101431.65;1806884;78;28450;-58
2021/05/04 10:06:20;;;;;;;3.60;1.17;;;;;;;22.16;23.23;101425.98;1798030;78;25757;-57
2021/05/04 10:08:50;;;;;;;4.58;0.80;;;;;;;22.89;24.32;101428.12;1796112;79;25643;-58
2021/05/04 10:11:21;;;;;;;6.12;2.30;;;;;;;23.91;22.06;101422.78;1805101;79;25739;-57
2021/05/04 10:13:56;;;;;;;2.20;1.17;;;;;;;24.45;22.79;101420.94;1803550;79;25792;-57
2021/05/04 10:16:27;;;;;;;4.42;1.12;;;;;;;25.06;20.58;101412.55;1802076;78;28526;-58
2021/05/04 10:19:06;;;;;;;5.03;1.12;;;;;;;25.40;19.48;101421.02;1737206;81;25445;-58
2021/05/04 10:21:34;;;;;;;5.90;1.10;;;;;;;25.52;20.33;101418.95;1744758;81;25639;-58
2021/05/04 10:24:04;;;;;;;3.25;1.10;;;;;;;25.49;21.05;101403.72;1748582;81;25700;-58
2021/05/04 10:26:33;;;;;;;4.15;1.15;;;;;;;24.84;21.66;101413.69;1705359;82;25696;-59
2021/05/04 10:29:08;;;;;;;3.10;1.50;;;;;;;24.61;21.26;101418.80;1744260;79;27519;-59
2021/05/04 10:31:45;;;;;;;3.58;1.15;;;;;;;24.99;21.71;101401.59;1759640;80;25655;-59
2021/05/04 10:34:33;;;;;;;6.83;1.40;;;;;;;25.89;19.61;101395.17;1756770;81;25473;-60
2021/05/04 10:37:19;;;;;;;3.12;1.40;;;;;;;26.48;20.39;101393.55;1744588;81;25786;-58
2021/05/04 10:39:48;;;;;;;3.80;0.88;;;;;;;27.34;19.01;101391.38;1733919;82;25638;-58
2021/05/04 10:42:36;;;;;;;1.98;1.10;;;;;;;27.59;17.65;101392.66;1733766;82;27529;-59
2021/05/04 10:45:05;;;;;;;1.90;0.85;;;;;;;27.70;18.75;101392.38;1732724;82;26096;-58
2021/05/04 10:47:47;;;;;;;3.37;1.35;;;;;;;27.61;18.25;101381.36;1733462;82;26317;-58
2021/05/04 10:50:28;;;;;;;2.08;0.82;;;;;;;26.80;18.99;101381.02;1733441;81;25699;-58
2021/05/04 10:53:00;;;;;;;4.83;0.93;;;;;;;26.55;19.35;101381.90;1702061;82;25657;-59
2021/05/04 10:55:59;;;;;;;1.30;1.00;;;;;;;26.90;19.53;101386.53;1753983;81;27551;-58
2021/05/04 10:58:32;;;;;;;1.22;0.90;;;;;;;27.24;17.69;101380.91;1745856;81;26084;-59
2021/05/04 11:01:08;;;;;;;3.42;1.00;;;;;;;27.48;17.98;101381.02;1724283;81;25767;-61
2021/05/04 11:03:46;;;;;;;2.25;0.80;;;;;;;27.56;18.14;101381.23;1736135;81;25965;-60
2021/05/04 11:06:29;;;;;;;7.67;1.05;;;;;;;28.29;18.11;101363.16;1763112;80;25738;-58
2021/05/04 11:09:06;;;;;;;1.57;0.90;;;;;;;29.02;17.94;101363.11;1704198;84;26895;-58
2021/05/04 11:11:39;;;;;;;1.22;0.85;;;;;;;29.73;16.78;101356.95;1704232;84;25733;-58
2021/05/04 11:14:21;;;;;;;2.65;1.00;;;;;;;29.75;15.89;101362.56;1703593;84;25737;-58
2021/05/04 11:17:08;;;;;;;2.45;1.05;;;;;;;29.72;15.66;101355.30;1767528;81;25668;-58
2021/05/04 11:19:42;;;;;;;5.45;1.35;;;;;;;29.49;15.16;101346.88;1704120;84;25671;-58
2021/05/04 11:22:19;;;;;;;2.55;1.00;;;;;;;29.30;13.83;101360.05;1704171;84;28403;-58
2021/05/04 11:24:51;;;;;;;3.90;1.17;;;;;;;28.64;14.58;101352.06;1704111;84;25696;-58
2021/05/04 11:27:26;;;;;;;7.58;0.88;;;;;;;28.73;14.54;101355.31;1704051;83;25729;-59
2021/05/04 11:29:59;;;;;;;1.85;0.72;;;;;;;28.78;15.70;101354.02;1704164;84;26058;-59
2021/05/04 11:32:40;;;;;;;5.85;1.00;;;;;;;29.12;16.16;101342.25;1733946;81;25977;-58
2021/05/04 11:35:11;;;;;;;4.47;1.25;;;;;;;30.17;15.75;101334.95;1765722;79;28429;-59
2021/05/04 11:37:47;;;;;;;4.58;0.75;;;;;;;30.57;14.80;101330.29;1757670;80;25654;-59
2021/05/04 11:40:25;;;;;;;4.08;1.25;;;;;;;30.99;15.19;101330.22;1762011;81;25683;-59
2021/05/04 11:42:57;;;;;;;2.05;0.93;;;;;;;31.36;14.91;101328.14;1736344;82;26067;-58
2021/05/04 11:45:32;;;;;;;1.00;0.80;;;;;;;30.76;14.26;101321.90;1766383;81;25611;-59
2021/05/04 11:48:04;;;;;;;4.28;1.12;;;;;;;31.20;13.35;101314.09;1739580;81;27521;-59
2021/05/04 11:50:37;;;;;;;1.98;0.95;;;;;;;31.09;13.76;101310.06;1760226;80;25797;-59